Time;durP1;ratioP1;P1;durP2;ratioP2;P2;SDS_P1;SDS_P2;PMS_P1;PMS_P2;Temp;Humidity;BMP_temperature;BMP_pressure;BME280_temperature;BME280_humidity;BME280_pressure;Samples;Min_cycle;Max_cycle;Signal;HPM_P1;HPM_P2
2022/01/25 00:10:39;;;;;;;;;;;21.50;26.70;;;;;;5089836;28;19926;-69
2022/01/25 00:16:09;;;;;;;;;;;21.50;26.70;;;;;;5069001;28;20412;-69
2022/01/25 00:29:55;;;;;;;;;;;21.40;26.50;;;;;;5088679;28;19989;-69
2022/01/25 00:32:22;;;;;;;;;;;21.40;26.50;;;;;;5089220;28;19970;-68
2022/01/25 00:34:50;;;;;;;;;;;21.40;26.50;;;;;;5088862;28;20015;-68
2022/01/25 00:37:17;;;;;;;;;;;21.40;26.50;;;;;;5088961;28;20377;-68
2022/01/25 00:39:44;;;;;;;;;;;21.40;26.50;;;;;;5088522;28;19959;-69
2022/01/25 00:42:11;;;;;;;;;;;21.40;26.50;;;;;;5089357;28;19920;-69
2022/01/25 00:44:40;;;;;;;;;;;21.30;26.50;;;;;;5088561;28;19963;-69
2022/01/25 00:47:07;;;;;;;;;;;21.30;26.50;;;;;;5088431;28;19970;-68
2022/01/25 00:49:38;;;;;;;;;;;21.30;26.50;;;;;;5087217;28;20022;-69
2022/01/25 00:53:53;;;;;;;;;;;21.30;26.50;;;;;;5088491;28;20376;-69
2022/01/25 00:54:53;;;;;;;;;;;21.30;26.50;;;;;;5088398;28;19959;-69
2022/01/25 00:57:20;;;;;;;;;;;21.30;26.50;;;;;;5088786;28;19967;-69
2022/01/25 00:59:47;;;;;;;;;;;21.30;26.50;;;;;;5087999;28;19920;-69
2022/01/25 01:02:14;;;;;;;;;;;21.30;26.50;;;;;;5087873;28;20131;-68
2022/01/25 01:04:42;;;;;;;;;;;21.30;26.50;;;;;;5087776;28;19920;-69
2022/01/25 01:07:12;;;;;;;;;;;21.30;26.50;;;;;;5088578;28;20007;-69
2022/01/25 01:09:41;;;;;;;;;;;21.30;26.50;;;;;;5087550;28;20509;-69
2022/01/25 01:12:15;;;;;;;;;;;21.30;26.50;;;;;;5070669;28;19924;-69
2022/01/25 01:15:07;;;;;;;;;;;21.30;26.50;;;;;;5088218;28;20398;-69
2022/01/25 01:28:49;;;;;;;;;;;21.30;26.50;;;;;;5088120;28;19928;-69
2022/01/25 01:31:53;;;;;;;;;;;21.30;26.50;;;;;;5087730;28;20258;-68
2022/01/25 01:37:38;;;;;;;;;;;21.20;26.40;;;;;;5086923;28;19971;-68
2022/01/25 01:40:20;;;;;;;;;;;21.20;26.40;;;;;;5087455;28;20002;-69
2022/01/25 01:45:37;;;;;;;;;;;21.20;26.40;;;;;;5100665;28;19934;-68
2022/01/25 01:48:08;;;;;;;;;;;21.20;26.40;;;;;;5087898;28;19997;-69
2022/01/25 01:50:36;;;;;;;;;;;21.20;26.40;;;;;;5086865;28;20521;-68
2022/01/25 01:53:04;;;;;;;;;;;21.20;26.40;;;;;;5087802;28;20281;-69
2022/01/25 01:55:32;;;;;;;;;;;21.30;26.40;;;;;;5087446;28;20233;-69
2022/01/25 01:58:00;;;;;;;;;;;21.20;26.40;;;;;;5087147;28;20014;-69
2022/01/25 02:00:31;;;;;;;;;;;21.20;26.30;;;;;;5087059;28;20199;-68
2022/01/25 02:02:59;;;;;;;;;;;21.20;26.30;;;;;;5086480;28;19924;-68
2022/01/25 02:05:27;;;;;;;;;;;21.20;26.30;;;;;;5087148;28;20203;-69
2022/01/25 02:07:53;;;;;;;;;;;21.20;26.30;;;;;;5087072;28;19998;-68
2022/01/25 02:10:20;;;;;;;;;;;21.20;26.30;;;;;;5087285;28;20023;-68
2022/01/25 02:12:50;;;;;;;;;;;21.20;26.30;;;;;;5087171;28;20030;-69
2022/01/25 02:15:17;;;;;;;;;;;21.20;26.30;;;;;;5086846;28;19951;-69
2022/01/25 02:22:20;;;;;;;;;;;21.20;26.20;;;;;;5086879;28;20396;-69
2022/01/25 02:23:21;;;;;;;;;;;21.20;26.20;;;;;;5086945;28;19971;-68
2022/01/25 02:25:50;;;;;;;;;;;21.20;26.20;;;;;;5086272;28;20089;-68
2022/01/25 02:28:17;;;;;;;;;;;21.20;26.20;;;;;;5086934;28;19974;-68
2022/01/25 02:30:44;;;;;;;;;;;21.10;26.20;;;;;;5086739;28;19920;-68
2022/01/25 02:33:11;;;;;;;;;;;21.10;26.20;;;;;;5086488;28;20296;-69
2022/01/25 02:35:40;;;;;;;;;;;21.10;26.20;;;;;;5086558;28;19963;-68
2022/01/25 02:38:07;;;;;;;;;;;21.10;26.20;;;;;;5086666;28;19920;-69
2022/01/25 02:40:35;;;;;;;;;;;21.10;26.20;;;;;;5086686;28;20300;-69
2022/01/25 02:43:02;;;;;;;;;;;21.10;26.20;;;;;;5086502;28;19997;-68
2022/01/25 02:45:34;;;;;;;;;;;21.10;26.20;;;;;;5086204;28;19920;-69
2022/01/25 02:50:49;;;;;;;;;;;21.10;26.20;;;;;;5085341;28;20372;-70
2022/01/25 02:53:16;;;;;;;;;;;21.10;26.20;;;;;;5086320;28;20378;-68
2022/01/25 02:55:43;;;;;;;;;;;21.10;26.20;;;;;;5086197;28;19920;-69
2022/01/25 02:58:10;;;;;;;;;;;21.10;26.20;;;;;;5086093;28;20357;-69
2022/01/25 03:00:37;;;;;;;;;;;21.10;26.20;;;;;;5086638;28;20434;-69
2022/01/25 03:03:04;;;;;;;;;;;21.00;26.10;;;;;;5086429;28;19998;-68
2022/01/25 03:05:33;;;;;;;;;;;21.10;26.20;;;;;;5086039;28;20320;-68
2022/01/25 03:08:00;;;;;;;;;;;21.10;26.20;;;;;;5085294;28;20001;-68
2022/01/25 03:10:35;;;;;;;;;;;21.10;26.20;;;;;;5086045;28;19932;-68
2022/01/25 03:13:02;;;;;;;;;;;21.10;26.20;;;;;;5085426;28;19959;-69
2022/01/25 03:21:05;;;;;;;;;;;21.00;26.10;;;;;;5085345;28;19966;-69
2022/01/25 03:23:33;;;;;;;;;;;21.00;26.20;;;;;;5085653;28;19920;-68
2022/01/25 03:26:00;;;;;;;;;;;21.00;26.10;;;;;;5085637;28;19946;-69
2022/01/25 03:28:27;;;;;;;;;;;21.00;26.10;;;;;;5085687;28;20380;-69
2022/01/25 03:30:54;;;;;;;;;;;21.00;26.10;;;;;;5086024;28;20010;-69
2022/01/25 03:33:21;;;;;;;;;;;21.00;26.10;;;;;;5084949;28;19920;-69
2022/01/25 03:35:48;;;;;;;;;;;21.00;26.10;;;;;;5067328;28;19920;-68
2022/01/25 03:38:15;;;;;;;;;;;21.00;26.10;;;;;;5085056;28;19959;-68
2022/01/25 03:40:42;;;;;;;;;;;21.00;26.10;;;;;;5101603;28;20256;-68
2022/01/25 03:43:09;;;;;;;;;;;21.00;26.10;;;;;;5085129;28;19920;-69
2022/01/25 03:45:39;;;;;;;;;;;21.00;26.10;;;;;;5086074;28;20439;-68
2022/01/25 03:50:53;;;;;;;;;;;21.00;26.10;;;;;;5098103;28;20261;-68
2022/01/25 03:53:20;;;;;;;;;;;21.00;26.10;;;;;;5100925;28;19974;-68
2022/01/25 03:55:53;;;;;;;;;;;21.00;26.10;;;;;;5085728;28;19920;-69
2022/01/25 03:58:21;;;;;;;;;;;21.00;26.10;;;;;;5085095;28;20320;-68
2022/01/25 04:00:49;;;;;;;;;;;21.00;26.10;;;;;;5085985;28;19967;-68
2022/01/25 04:03:24;;;;;;;;;;;21.00;26.10;;;;;;5085391;28;20430;-69
2022/01/25 04:05:53;;;;;;;;;;;21.00;26.00;;;;;;5085245;28;19924;-68
2022/01/25 04:08:21;;;;;;;;;;;21.00;26.00;;;;;;5084935;28;19931;-68
2022/01/25 04:10:48;;;;;;;;;;;21.00;26.00;;;;;;5085783;28;20008;-69
2022/01/25 04:13:15;;;;;;;;;;;21.00;26.00;;;;;;5084910;28;20381;-68
2022/01/25 04:15:45;;;;;;;;;;;21.00;26.00;;;;;;5085101;28;20026;-68
2022/01/25 04:18:29;;;;;;;;;;;21.00;26.00;;;;;;5067758;28;20502;-68
2022/01/25 04:21:11;;;;;;;;;;;21.00;26.00;;;;;;5067295;28;20428;-68
2022/01/25 04:26:25;;;;;;;;;;;21.00;26.00;;;;;;5088195;28;19924;-68
2022/01/25 04:28:52;;;;;;;;;;;21.00;26.00;;;;;;5071004;28;19974;-68
2022/01/25 04:31:20;;;;;;;;;;;21.00;26.00;;;;;;5088999;28;19959;-68
2022/01/25 04:34:08;;;;;;;;;;;21.00;26.00;;;;;;5088718;28;19973;-69
2022/01/25 04:37:01;;;;;;;;;;;20.90;26.00;;;;;;5088995;28;19965;-68
2022/01/25 04:53:32;;;;;;;;;;;20.90;26.00;;;;;;5088139;28;19973;-68
2022/01/25 04:56:08;;;;;;;;;;;20.90;26.00;;;;;;5085476;28;19920;-68
2022/01/25 04:58:56;;;;;;;;;;;20.90;26.00;;;;;;5088319;28;19973;-68
2022/01/25 05:01:23;;;;;;;;;;;20.90;26.40;;;;;;5087215;28;19927;-68
2022/01/25 05:04:00;;;;;;;;;;;20.90;26.00;;;;;;5087750;28;19920;-68
2022/01/25 05:06:29;;;;;;;;;;;20.90;26.00;;;;;;5087703;28;20323;-69
2022/01/25 05:09:05;;;;;;;;;;;20.90;26.00;;;;;;5087774;28;19924;-68
2022/01/25 05:11:35;;;;;;;;;;;20.90;26.00;;;;;;5088595;28;20372;-68
2022/01/25 05:14:16;;;;;;;;;;;20.90;26.00;;;;;;5087610;28;19971;-69
2022/01/25 05:16:52;;;;;;;;;;;20.90;26.00;;;;;;5088426;28;20019;-68
2022/01/25 05:19:26;;;;;;;;;;;20.90;26.00;;;;;;5087722;28;19974;-69
2022/01/25 05:22:05;;;;;;;;;;;20.90;26.00;;;;;;5088165;28;20076;-69
2022/01/25 05:24:37;;;;;;;;;;;20.90;26.00;;;;;;5087278;28;19923;-68
2022/01/25 05:27:05;;;;;;;;;;;20.90;25.90;;;;;;5087699;28;20368;-68
2022/01/25 05:29:32;;;;;;;;;;;20.90;25.90;;;;;;5087829;28;20368;-68
2022/01/25 05:31:59;;;;;;;;;;;20.90;25.90;;;;;;5088127;28;19920;-68
2022/01/25 05:34:26;;;;;;;;;;;20.80;25.90;;;;;;5087374;28;20019;-68
2022/01/25 05:36:53;;;;;;;;;;;20.80;25.90;;;;;;5086455;28;20329;-68
2022/01/25 05:39:25;;;;;;;;;;;20.80;25.90;;;;;;5086659;28;19959;-69
2022/01/25 05:42:00;;;;;;;;;;;20.90;26.00;;;;;;5085655;28;20366;-68
2022/01/25 05:44:42;;;;;;;;;;;20.90;26.00;;;;;;5091494;28;19920;-69
2022/01/25 05:47:13;;;;;;;;;;;20.90;25.90;;;;;;5086154;28;19978;-69
2022/01/25 05:49:46;;;;;;;;;;;20.90;25.90;;;;;;5090281;28;19923;-69
2022/01/25 05:52:13;;;;;;;;;;;20.90;25.90;;;;;;5086904;28;20007;-68
2022/01/25 05:54:40;;;;;;;;;;;20.90;25.90;;;;;;5085556;28;20011;-69
2022/01/25 05:57:07;;;;;;;;;;;20.90;25.90;;;;;;5085861;28;19926;-69
2022/01/25 05:59:37;;;;;;;;;;;20.90;25.90;;;;;;5085720;28;20393;-69
2022/01/25 06:02:04;;;;;;;;;;;20.90;25.90;;;;;;5083690;28;19956;-68
2022/01/25 06:04:32;;;;;;;;;;;20.90;25.80;;;;;;5084459;28;19993;-69
2022/01/25 06:06:59;;;;;;;;;;;20.90;25.80;;;;;;5086178;28;20007;-68
2022/01/25 06:09:26;;;;;;;;;;;20.80;25.70;;;;;;5081679;28;20454;-69
2022/01/25 06:11:55;;;;;;;;;;;20.80;25.60;;;;;;5082225;28;19924;-68
2022/01/25 06:14:22;;;;;;;;;;;20.80;25.50;;;;;;5082224;28;19971;-69
2022/01/25 06:16:49;;;;;;;;;;;20.80;25.60;;;;;;5087591;28;20023;-73
2022/01/25 06:19:16;;;;;;;;;;;20.70;25.40;;;;;;5090186;28;20011;-66
2022/01/25 06:21:43;;;;;;;;;;;20.80;25.60;;;;;;5081512;28;20364;-67
2022/01/25 06:24:10;;;;;;;;;;;20.70;25.60;;;;;;5072171;28;19920;-67
2022/01/25 06:26:36;;;;;;;;;;;20.80;25.60;;;;;;5084525;28;19963;-68
2022/01/25 06:29:04;;;;;;;;;;;20.80;25.50;;;;;;5089218;28;19920;-67
2022/01/25 06:31:31;;;;;;;;;;;20.80;25.40;;;;;;5087186;28;19926;-67
2022/01/25 06:33:59;;;;;;;;;;;20.90;25.40;;;;;;5101419;28;20175;-67
2022/01/25 06:36:26;;;;;;;;;;;20.90;25.40;;;;;;5083531;28;19963;-69
2022/01/25 06:38:53;;;;;;;;;;;21.00;25.40;;;;;;5088367;28;19924;-69
2022/01/25 06:41:25;;;;;;;;;;;21.00;25.30;;;;;;5087521;28;19931;-71
2022/01/25 06:43:52;;;;;;;;;;;21.10;25.30;;;;;;5086573;28;19920;-65
2022/01/25 06:46:19;;;;;;;;;;;21.20;25.40;;;;;;5086828;28;20016;-67
2022/01/25 06:48:46;;;;;;;;;;;21.30;25.60;;;;;;5087891;28;19927;-67
2022/01/25 06:51:13;;;;;;;;;;;21.30;25.80;;;;;;5089326;28;19919;-69
2022/01/25 06:53:40;;;;;;;;;;;21.40;26.00;;;;;;5071178;28;19927;-68
2022/01/25 06:56:07;;;;;;;;;;;21.40;25.90;;;;;;5084004;28;20004;-67
2022/01/25 06:58:34;;;;;;;;;;;21.50;25.90;;;;;;5085867;28;19932;-67
2022/01/25 07:01:02;;;;;;;;;;;21.50;25.70;;;;;;5089098;28;19931;-68
2022/01/25 07:03:29;;;;;;;;;;;21.60;25.70;;;;;;5087159;28;20289;-72
2022/01/25 07:05:56;;;;;;;;;;;21.70;25.60;;;;;;5086276;28;20404;-66
2022/01/25 07:08:23;;;;;;;;;;;21.80;26.10;;;;;;5086492;28;19973;-69
2022/01/25 07:10:52;;;;;;;;;;;21.80;26.30;;;;;;5089048;28;19926;-68
2022/01/25 07:13:19;;;;;;;;;;;21.90;26.50;;;;;;5089369;28;19979;-69
2022/01/25 07:15:46;;;;;;;;;;;21.90;26.60;;;;;;5089620;28;20384;-69
2022/01/25 07:18:15;;;;;;;;;;;22.00;26.60;;;;;;5090617;28;20273;-71
2022/01/25 07:20:42;;;;;;;;;;;22.10;26.70;;;;;;5090406;28;19923;-75
2022/01/25 07:23:12;;;;;;;;;;;22.20;26.80;;;;;;5090663;28;20046;-71
2022/01/25 07:25:39;;;;;;;;;;;22.20;26.70;;;;;;5090844;28;20269;-68
2022/01/25 07:28:06;;;;;;;;;;;22.30;26.70;;;;;;5087637;28;19920;-73
2022/01/25 07:30:33;;;;;;;;;;;22.30;26.70;;;;;;5090080;28;19920;-67
2022/01/25 07:33:32;;;;;;;;;;;22.40;26.70;;;;;;5074903;28;19931;-67
2022/01/25 07:35:59;;;;;;;;;;;22.50;26.40;;;;;;5090070;28;19957;-67
2022/01/25 07:38:27;;;;;;;;;;;22.60;26.10;;;;;;5088453;28;19920;-66
2022/01/25 07:41:07;;;;;;;;;;;22.70;25.80;;;;;;5089353;28;19944;-72
2022/01/25 07:43:34;;;;;;;;;;;22.70;25.70;;;;;;5089867;28;19965;-68
2022/01/25 07:46:10;;;;;;;;;;;22.80;25.90;;;;;;5088711;28;20331;-71
2022/01/25 07:48:42;;;;;;;;;;;22.90;26.10;;;;;;5098175;28;19932;-69
2022/01/25 07:51:11;;;;;;;;;;;23.00;26.00;;;;;;5092105;28;20191;-71
2022/01/25 07:53:39;;;;;;;;;;;23.00;25.90;;;;;;5108860;28;19966;-67
2022/01/25 07:56:06;;;;;;;;;;;23.00;25.90;;;;;;5109637;28;20335;-69
2022/01/25 07:58:33;;;;;;;;;;;23.10;25.60;;;;;;5096290;28;19951;-70
2022/01/25 08:01:00;;;;;;;;;;;23.20;25.40;;;;;;5092498;28;19920;-69
2022/01/25 08:03:27;;;;;;;;;;;23.20;25.30;;;;;;5074151;28;19927;-68
2022/01/25 08:06:07;;;;;;;;;;;23.30;25.30;;;;;;5092607;28;19935;-65
2022/01/25 08:08:47;;;;;;;;;;;23.40;25.30;;;;;;5091643;28;20015;-68
2022/01/25 08:11:17;;;;;;;;;;;23.50;25.50;;;;;;5085138;28;20015;-65
2022/01/25 08:14:14;;;;;;;;;;;23.50;25.20;;;;;;4982980;28;20439;-67
2022/01/25 08:16:58;;;;;;;;;;;23.60;25.20;;;;;;5006928;28;20407;-68
2022/01/25 08:19:39;;;;;;;;;;;23.60;24.90;;;;;;5086654;28;20373;-68
2022/01/25 08:22:29;;;;;;;;;;;23.70;24.70;;;;;;5058045;28;19928;-64
2022/01/25 08:25:21;;;;;;;;;;;23.80;24.70;;;;;;5061664;28;19935;-62
2022/01/25 08:27:57;;;;;;;;;;;23.80;24.80;;;;;;5083877;28;19966;-65
2022/01/25 08:30:26;;;;;;;;;;;23.90;25.00;;;;;;5084256;28;19927;-64
2022/01/25 08:33:23;;;;;;;;;;;23.90;25.10;;;;;;5063129;28;20373;-66
2022/01/25 08:36:13;;;;;;;;;;;23.90;25.10;;;;;;5013344;28;20498;-66
2022/01/25 08:38:53;;;;;;;;;;;23.90;25.10;;;;;;5006520;28;19921;-65
2022/01/25 08:41:26;;;;;;;;;;;23.90;25.10;;;;;;5001018;28;19929;-65
2022/01/25 08:44:13;;;;;;;;;;;23.90;25.20;;;;;;5006313;28;20386;-62
2022/01/25 08:46:45;;;;;;;;;;;23.90;25.20;;;;;;4997796;28;19929;-66
2022/01/25 08:49:27;;;;;;;;;;;23.90;25.20;;;;;;4929039;29;19931;-66
2022/01/25 08:52:02;;;;;;;;;;;23.90;25.20;;;;;;4922852;29;19934;-67
2022/01/25 08:54:50;;;;;;;;;;;24.00;25.30;;;;;;4918236;29;19942;-66
2022/01/25 09:00:52;;;;;;;;;;;24.00;25.50;;;;;;4926865;29;19934;-64
2022/01/25 09:03:19;;;;;;;;;;;24.10;25.70;;;;;;4922454;29;19967;-68
2022/01/25 09:05:46;;;;;;;;;;;24.10;25.80;;;;;;4920001;29;19931;-61
2022/01/25 09:08:19;;;;;;;;;;;24.10;25.90;;;;;;4925597;29;20102;-67
2022/01/25 09:10:50;;;;;;;;;;;24.10;26.00;;;;;;4922177;29;19927;-67
2022/01/25 09:13:18;;;;;;;;;;;24.20;26.00;;;;;;4977899;28;20015;-66
2022/01/25 09:15:45;;;;;;;;;;;24.20;25.90;;;;;;5007455;28;20333;-65
2022/01/25 09:18:12;;;;;;;;;;;24.20;25.80;;;;;;5010123;28;20021;-66
2022/01/25 09:20:39;;;;;;;;;;;24.30;25.70;;;;;;5057768;28;20331;-65
2022/01/25 09:26:40;;;;;;;;;;;24.30;25.70;;;;;;5090822;28;19915;-69
2022/01/25 09:29:07;;;;;;;;;;;24.30;25.80;;;;;;5086392;28;20419;-71
2022/01/25 09:31:34;;;;;;;;;;;24.30;25.90;;;;;;5084243;28;19935;-66
2022/01/25 09:34:01;;;;;;;;;;;24.30;25.80;;;;;;5102805;28;19920;-69
2022/01/25 09:36:29;;;;;;;;;;;24.40;25.90;;;;;;5110556;28;19920;-68
2022/01/25 09:38:56;;;;;;;;;;;24.40;25.80;;;;;;5108611;28;19995;-69
2022/01/25 09:41:24;;;;;;;;;;;24.40;25.80;;;;;;5105802;28;19926;-70
2022/01/25 09:43:51;;;;;;;;;;;24.40;26.10;;;;;;5096146;28;20369;-70
2022/01/25 09:46:18;;;;;;;;;;;24.40;25.70;;;;;;5091787;28;20369;-70
2022/01/25 09:48:45;;;;;;;;;;;24.40;25.80;;;;;;5091238;28;19967;-67
2022/01/25 09:51:12;;;;;;;;;;;24.50;25.80;;;;;;5090983;28;20015;-66
2022/01/25 09:53:40;;;;;;;;;;;24.50;25.80;;;;;;5089837;28;19920;-68
2022/01/25 09:56:07;;;;;;;;;;;24.50;25.80;;;;;;5085275;28;19920;-64
2022/01/25 09:58:34;;;;;;;;;;;24.50;25.70;;;;;;5098967;28;19920;-67
2022/01/25 10:01:02;;;;;;;;;;;24.50;25.70;;;;;;5087347;28;19958;-67
2022/01/25 10:03:34;;;;;;;;;;;24.50;25.70;;;;;;5092621;28;20377;-66
2022/01/25 10:06:02;;;;;;;;;;;24.50;25.70;;;;;;5085670;28;20364;-65
2022/01/25 10:08:31;;;;;;;;;;;24.60;25.60;;;;;;5084486;28;21484;-64
2022/01/25 10:10:59;;;;;;;;;;;24.60;25.60;;;;;;5087363;28;19920;-65
2022/01/25 10:13:30;;;;;;;;;;;24.60;25.40;;;;;;5084571;28;20474;-64
2022/01/25 10:15:59;;;;;;;;;;;24.60;25.30;;;;;;5081041;28;19975;-64
2022/01/25 10:18:41;;;;;;;;;;;24.60;25.30;;;;;;5088796;28;19920;-64
2022/01/25 10:21:19;;;;;;;;;;;24.60;25.20;;;;;;5085159;28;19931;-65
2022/01/25 10:24:06;;;;;;;;;;;24.60;25.10;;;;;;5064287;28;19966;-65
2022/01/25 10:26:35;;;;;;;;;;;24.60;25.10;;;;;;5065746;28;19936;-66
2022/01/25 10:29:12;;;;;;;;;;;24.60;25.00;;;;;;5086758;28;19920;-63
2022/01/25 10:31:48;;;;;;;;;;;24.60;25.00;;;;;;5089125;28;19927;-69
2022/01/25 10:34:17;;;;;;;;;;;24.60;25.10;;;;;;5088180;28;19919;-68
2022/01/25 10:36:46;;;;;;;;;;;24.60;25.20;;;;;;5084879;28;20033;-68
2022/01/25 10:39:18;;;;;;;;;;;24.70;25.20;;;;;;5088570;28;20026;-66
2022/01/25 10:41:46;;;;;;;;;;;24.70;25.20;;;;;;5087226;28;20046;-68
2022/01/25 10:44:13;;;;;;;;;;;24.70;25.30;;;;;;5091769;28;19924;-67
2022/01/25 10:46:41;;;;;;;;;;;24.70;25.30;;;;;;5087121;28;19926;-66
2022/01/25 10:49:10;;;;;;;;;;;24.70;25.30;;;;;;5087155;28;20433;-66
2022/01/25 10:51:38;;;;;;;;;;;24.70;25.30;;;;;;5088405;28;19973;-71
2022/01/25 10:54:24;;;;;;;;;;;24.70;25.10;;;;;;5088093;28;19981;-71
2022/01/25 10:56:54;;;;;;;;;;;24.70;25.20;;;;;;5079034;28;20481;-70
2022/01/25 10:59:22;;;;;;;;;;;24.70;25.30;;;;;;5088263;28;20432;-69
2022/01/25 11:01:53;;;;;;;;;;;24.80;25.50;;;;;;5089379;28;19971;-72
2022/01/25 11:07:53;;;;;;;;;;;24.90;25.60;;;;;;5076705;28;19917;-71
2022/01/25 11:10:21;;;;;;;;;;;24.90;25.60;;;;;;5090481;28;20430;-70
2022/01/25 11:13:02;;;;;;;;;;;25.00;25.60;;;;;;5089797;28;19920;-70
2022/01/25 11:15:33;;;;;;;;;;;25.00;25.60;;;;;;5088986;28;20388;-70
2022/01/25 11:18:00;;;;;;;;;;;25.00;25.50;;;;;;5087548;28;19920;-70
2022/01/25 11:20:28;;;;;;;;;;;25.00;25.40;;;;;;5089763;28;19920;-70
2022/01/25 11:22:56;;;;;;;;;;;25.10;25.30;;;;;;5089298;28;19927;-71
2022/01/25 11:25:23;;;;;;;;;;;25.10;25.20;;;;;;5089591;28;20471;-71
2022/01/25 11:27:51;;;;;;;;;;;25.10;25.10;;;;;;5088460;28;20377;-71
2022/01/25 11:30:19;;;;;;;;;;;25.10;25.00;;;;;;5090247;28;19920;-71
2022/01/25 11:32:48;;;;;;;;;;;25.10;24.90;;;;;;5089974;28;19931;-72
2022/01/25 11:35:19;;;;;;;;;;;25.10;24.90;;;;;;5093559;28;19919;-70
2022/01/25 11:37:48;;;;;;;;;;;25.10;24.80;;;;;;5094324;28;19920;-73
2022/01/25 11:40:28;;;;;;;;;;;25.10;24.80;;;;;;5093826;28;19920;-70
2022/01/25 11:42:59;;;;;;;;;;;25.10;24.80;;;;;;5090047;28;19920;-69
2022/01/25 11:45:28;;;;;;;;;;;25.10;24.80;;;;;;5093840;28;20356;-68
2022/01/25 11:47:56;;;;;;;;;;;25.10;24.80;;;;;;5093227;28;19946;-69
2022/01/25 11:50:30;;;;;;;;;;;25.10;25.00;;;;;;5092153;28;19975;-73
2022/01/25 11:53:06;;;;;;;;;;;25.10;25.00;;;;;;5087560;28;19920;-67
2022/01/25 11:55:41;;;;;;;;;;;25.10;25.10;;;;;;5093238;28;19927;-68
2022/01/25 11:58:12;;;;;;;;;;;25.10;25.00;;;;;;5093099;28;19974;-74
2022/01/25 12:00:47;;;;;;;;;;;25.10;24.90;;;;;;5086315;28;19934;-73
2022/01/25 12:03:24;;;;;;;;;;;25.10;25.10;;;;;;5086866;28;20129;-67
2022/01/25 12:05:59;;;;;;;;;;;25.10;25.10;;;;;;5092809;28;20323;-75
2022/01/25 12:08:39;;;;;;;;;;;25.10;25.30;;;;;;5093612;28;19999;-71
2022/01/25 12:11:25;;;;;;;;;;;25.10;25.40;;;;;;5092306;28;19966;-67
2022/01/25 12:14:13;;;;;;;;;;;25.10;25.50;;;;;;5092557;28;19962;-69
2022/01/25 12:16:43;;;;;;;;;;;25.20;25.70;;;;;;5094348;28;19985;-73
2022/01/25 12:19:12;;;;;;;;;;;25.20;25.80;;;;;;5093335;28;20006;-70
2022/01/25 12:21:54;;;;;;;;;;;25.20;25.80;;;;;;5087517;28;19965;-68
2022/01/25 12:24:27;;;;;;;;;;;25.20;25.90;;;;;;5089766;28;19924;-71
2022/01/25 12:27:22;;;;;;;;;;;25.20;25.80;;;;;;5091864;28;19920;-70
2022/01/25 12:30:08;;;;;;;;;;;25.20;26.00;;;;;;5092067;28;19924;-66
2022/01/25 12:32:36;;;;;;;;;;;25.20;25.90;;;;;;5086098;28;20396;-66
2022/01/25 12:35:13;;;;;;;;;;;25.20;25.90;;;;;;5091853;28;19920;-63
2022/01/25 12:37:56;;;;;;;;;;;25.20;25.90;;;;;;5092612;28;20268;-64
2022/01/25 12:40:29;;;;;;;;;;;25.20;25.90;;;;;;5090967;28;19970;-63
2022/01/25 12:42:58;;;;;;;;;;;25.20;25.90;;;;;;5082767;28;20444;-65
2022/01/25 12:45:26;;;;;;;;;;;25.20;25.90;;;;;;5071015;28;19924;-66
2022/01/25 12:47:54;;;;;;;;;;;25.20;25.90;;;;;;5072028;28;20022;-63
2022/01/25 12:50:22;;;;;;;;;;;25.20;25.80;;;;;;5071397;28;20007;-63
2022/01/25 12:52:49;;;;;;;;;;;25.20;25.90;;;;;;5076242;28;20391;-62
2022/01/25 12:55:21;;;;;;;;;;;25.20;25.90;;;;;;5091518;28;19973;-62
2022/01/25 12:57:49;;;;;;;;;;;25.20;25.90;;;;;;5090143;28;19973;-68
2022/01/25 13:00:17;;;;;;;;;;;25.20;25.90;;;;;;5092014;28;19974;-66
2022/01/25 13:02:44;;;;;;;;;;;25.20;25.80;;;;;;5073127;28;19924;-64
2022/01/25 13:05:15;;;;;;;;;;;25.30;25.90;;;;;;5084669;28;20296;-63
2022/01/25 13:07:42;;;;;;;;;;;25.30;25.90;;;;;;5085930;28;19926;-64
2022/01/25 13:10:12;;;;;;;;;;;25.30;25.70;;;;;;5084992;28;20348;-65
2022/01/25 13:12:55;;;;;;;;;;;25.30;25.60;;;;;;5089292;28;20014;-66
2022/01/25 13:15:39;;;;;;;;;;;25.30;25.60;;;;;;5084088;28;19977;-63
2022/01/25 13:18:10;;;;;;;;;;;25.30;25.70;;;;;;5083592;28;19927;-62
2022/01/25 13:20:39;;;;;;;;;;;25.30;25.60;;;;;;5082299;28;19999;-63
2022/01/25 13:23:08;;;;;;;;;;;25.30;25.70;;;;;;5084675;28;19976;-62
2022/01/25 13:25:55;;;;;;;;;;;25.30;25.80;;;;;;5085576;28;19981;-64
2022/01/25 13:30:38;;;;;;;;;;;25.30;25.80;;;;;;5081566;28;19920;-67
2022/01/25 13:31:19;;;;;;;;;;;25.30;25.90;;;;;;5078456;28;20007;-65
2022/01/25 13:33:53;;;;;;;;;;;25.40;26.00;;;;;;5097347;28;19930;-66
2022/01/25 13:36:20;;;;;;;;;;;25.40;26.10;;;;;;5084591;28;20010;-63
2022/01/25 13:38:49;;;;;;;;;;;25.30;26.20;;;;;;5088705;28;20011;-63
2022/01/25 13:41:21;;;;;;;;;;;25.40;26.30;;;;;;5090610;28;20335;-62
2022/01/25 13:46:39;;;;;;;;;;;25.30;26.20;;;;;;5078473;28;20447;-68
2022/01/25 13:49:12;;;;;;;;;;;25.30;26.20;;;;;;5086747;28;19920;-69
2022/01/25 13:51:47;;;;;;;;;;;25.30;26.30;;;;;;5090568;28;19920;-67
2022/01/25 13:54:20;;;;;;;;;;;25.30;26.20;;;;;;5089188;28;19920;-70
2022/01/25 13:56:47;;;;;;;;;;;25.30;26.20;;;;;;5087427;28;19979;-72
2022/01/25 13:59:15;;;;;;;;;;;25.30;26.30;;;;;;5089086;28;20374;-68
2022/01/25 14:01:42;;;;;;;;;;;25.30;26.30;;;;;;5088799;28;19921;-73
2022/01/25 14:04:26;;;;;;;;;;;25.20;26.20;;;;;;5089927;28;19967;-69
2022/01/25 14:06:54;;;;;;;;;;;25.20;26.30;;;;;;5089996;28;19924;-65
2022/01/25 14:09:28;;;;;;;;;;;25.20;26.50;;;;;;5087029;28;20010;-69
2022/01/25 14:23:22;;;;;;;;;;;25.20;26.30;;;;;;5089668;28;20417;-69
2022/01/25 14:25:50;;;;;;;;;;;25.20;26.50;;;;;;5089245;28;19920;-67
2022/01/25 14:28:20;;;;;;;;;;;25.30;26.50;;;;;;5088779;28;19920;-68
2022/01/25 14:30:49;;;;;;;;;;;25.30;26.30;;;;;;5090539;28;20383;-65
2022/01/25 14:33:23;;;;;;;;;;;25.30;26.20;;;;;;5090806;28;19971;-70
2022/01/25 14:35:56;;;;;;;;;;;25.30;26.20;;;;;;5091344;28;20366;-69
2022/01/25 14:38:25;;;;;;;;;;;25.30;26.20;;;;;;5090668;28;19967;-70
2022/01/25 14:40:58;;;;;;;;;;;25.30;26.10;;;;;;5072488;28;19982;-71
2022/01/25 14:43:25;;;;;;;;;;;25.30;26.10;;;;;;5092037;28;19985;-72
2022/01/25 14:46:01;;;;;;;;;;;25.20;26.10;;;;;;5091888;28;20417;-71
2022/01/25 14:48:33;;;;;;;;;;;25.20;26.10;;;;;;5090181;28;19975;-67
2022/01/25 14:51:00;;;;;;;;;;;25.20;26.10;;;;;;5091406;28;19978;-71
2022/01/25 14:53:27;;;;;;;;;;;25.20;26.10;;;;;;5090415;28;20090;-70
2022/01/25 14:55:56;;;;;;;;;;;25.10;26.10;;;;;;5073600;28;19923;-72
2022/01/25 15:01:15;;;;;;;;;;;25.10;26.10;;;;;;5091291;28;19924;-67
2022/01/25 15:03:45;;;;;;;;;;;25.10;26.10;;;;;;5091156;28;20355;-71
2022/01/25 15:06:13;;;;;;;;;;;25.00;26.10;;;;;;5090881;28;20003;-69
2022/01/25 15:08:47;;;;;;;;;;;25.00;26.10;;;;;;5087933;28;19963;-64
2022/01/25 15:11:14;;;;;;;;;;;25.00;26.20;;;;;;5084194;28;19996;-64
2022/01/25 15:13:41;;;;;;;;;;;25.00;26.40;;;;;;5082768;28;19985;-69
2022/01/25 15:16:08;;;;;;;;;;;25.00;26.60;;;;;;5083574;28;19920;-68
2022/01/25 15:18:38;;;;;;;;;;;25.00;26.70;;;;;;5082965;28;20349;-66
2022/01/25 15:21:06;;;;;;;;;;;25.00;26.80;;;;;;5085045;28;19923;-66
2022/01/25 15:23:35;;;;;;;;;;;24.90;26.90;;;;;;5085610;28;19942;-67
2022/01/25 15:26:05;;;;;;;;;;;25.00;26.90;;;;;;5081772;28;20331;-66
2022/01/25 15:28:38;;;;;;;;;;;24.90;26.90;;;;;;5085581;28;19923;-65
2022/01/25 15:31:06;;;;;;;;;;;24.90;27.00;;;;;;5084855;28;20266;-66
2022/01/25 15:33:33;;;;;;;;;;;24.90;27.00;;;;;;5087617;28;19955;-72
2022/01/25 15:36:00;;;;;;;;;;;24.90;27.10;;;;;;5085190;28;20376;-69
2022/01/25 15:38:28;;;;;;;;;;;24.80;27.10;;;;;;5086360;28;19920;-68
2022/01/25 15:40:55;;;;;;;;;;;24.80;27.00;;;;;;5090123;28;20249;-68
2022/01/25 15:43:23;;;;;;;;;;;24.80;26.80;;;;;;5088923;28;20006;-68
2022/01/25 15:46:03;;;;;;;;;;;24.70;26.50;;;;;;5085756;28;19919;-68
2022/01/25 15:48:31;;;;;;;;;;;24.70;26.30;;;;;;5083628;28;19977;-68
2022/01/25 15:50:59;;;;;;;;;;;24.70;26.10;;;;;;5080632;28;19975;-68
2022/01/25 15:53:26;;;;;;;;;;;24.70;26.40;;;;;;5085547;28;19927;-68
2022/01/25 15:55:53;;;;;;;;;;;24.60;25.90;;;;;;5085277;28;19926;-71
2022/01/25 15:58:20;;;;;;;;;;;24.50;25.80;;;;;;5085848;28;19920;-68
2022/01/25 16:00:48;;;;;;;;;;;24.50;25.80;;;;;;5085487;28;19920;-68
2022/01/25 16:03:17;;;;;;;;;;;24.40;25.80;;;;;;5085174;28;19920;-68
2022/01/25 16:05:45;;;;;;;;;;;24.40;25.80;;;;;;5099979;28;20308;-68
2022/01/25 16:08:14;;;;;;;;;;;24.30;25.70;;;;;;5075270;28;20031;-68
2022/01/25 16:10:43;;;;;;;;;;;24.30;25.70;;;;;;5085903;28;20408;-68
2022/01/25 16:13:14;;;;;;;;;;;24.30;25.70;;;;;;5084567;28;20381;-68
2022/01/25 16:15:42;;;;;;;;;;;24.20;25.70;;;;;;5080721;28;20403;-68
2022/01/25 16:18:09;;;;;;;;;;;24.20;25.70;;;;;;5073339;28;19960;-68